sensor_id;sensor_type;location;lat;lon;timestamp;P1;durP1;ratioP1;P2;durP2;ratioP2
35552;SDS011;21656;46.054;13.614;2022-10-13T00:00:55;19.33;;;9.65;;
35552;SDS011;21656;46.054;13.614;2022-10-13T00:03:20;15.73;;;9.05;;
35552;SDS011;21656;46.054;13.614;2022-10-13T00:05:47;14.82;;;9.95;;
35552;SDS011;21656;46.054;13.614;2022-10-13T00:08:15;16.23;;;10.18;;
35552;SDS011;21656;46.054;13.614;2022-10-13T00:10:46;15.57;;;9.70;;
35552;SDS011;21656;46.054;13.614;2022-10-13T00:13:13;22.25;;;11.25;;
35552;SDS011;21656;46.054;13.614;2022-10-13T00:15:40;16.23;;;11.07;;
35552;SDS011;21656;46.054;13.614;2022-10-13T00:18:08;13.25;;;9.60;;
35552;SDS011;21656;46.054;13.614;2022-10-13T00:20:33;19.85;;;10.50;;
35552;SDS011;21656;46.054;13.614;2022-10-13T00:23:00;17.65;;;11.23;;
35552;SDS011;21656;46.054;13.614;2022-10-13T00:25:25;18.73;;;10.20;;
35552;SDS011;21656;46.054;13.614;2022-10-13T00:27:51;22.23;;;12.15;;
35552;SDS011;21656;46.054;13.614;2022-10-13T00:30:16;23.40;;;10.73;;
35552;SDS011;21656;46.054;13.614;2022-10-13T00:32:42;20.45;;;11.55;;
35552;SDS011;21656;46.054;13.614;2022-10-13T00:35:08;20.50;;;10.95;;
35552;SDS011;21656;46.054;13.614;2022-10-13T00:37:33;17.77;;;11.10;;
35552;SDS011;21656;46.054;13.614;2022-10-13T00:39:59;18.92;;;11.93;;
35552;SDS011;21656;46.054;13.614;2022-10-13T00:42:24;19.85;;;12.07;;
35552;SDS011;21656;46.054;13.614;2022-10-13T00:45:12;21.58;;;11.77;;
35552;SDS011;21656;46.054;13.614;2022-10-13T00:50:16;23.27;;;11.15;;
35552;SDS011;21656;46.054;13.614;2022-10-13T00:52:45;21.50;;;11.43;;
35552;SDS011;21656;46.054;13.614;2022-10-13T00:55:12;22.83;;;11.40;;
35552;SDS011;21656;46.054;13.614;2022-10-13T00:57:42;17.83;;;11.65;;
35552;SDS011;21656;46.054;13.614;2022-10-13T01:00:18;18.52;;;11.27;;
35552;SDS011;21656;46.054;13.614;2022-10-13T01:02:44;22.23;;;12.05;;
35552;SDS011;21656;46.054;13.614;2022-10-13T01:05:09;20.33;;;12.05;;
35552;SDS011;21656;46.054;13.614;2022-10-13T01:07:34;20.15;;;11.65;;
35552;SDS011;21656;46.054;13.614;2022-10-13T01:10:00;18.80;;;12.45;;
35552;SDS011;21656;46.054;13.614;2022-10-13T01:12:36;20.40;;;12.63;;
35552;SDS011;21656;46.054;13.614;2022-10-13T01:15:20;23.13;;;13.48;;
35552;SDS011;21656;46.054;13.614;2022-10-13T01:26:00;18.90;;;11.43;;
35552;SDS011;21656;46.054;13.614;2022-10-13T01:31:29;23.60;;;12.70;;
35552;SDS011;21656;46.054;13.614;2022-10-13T01:41:53;26.42;;;12.55;;
35552;SDS011;21656;46.054;13.614;2022-10-13T01:44:27;23.33;;;13.73;;
35552;SDS011;21656;46.054;13.614;2022-10-13T01:46:58;34.00;;;14.32;;
35552;SDS011;21656;46.054;13.614;2022-10-13T01:49:26;26.10;;;13.65;;
35552;SDS011;21656;46.054;13.614;2022-10-13T01:51:56;22.23;;;12.68;;
35552;SDS011;21656;46.054;13.614;2022-10-13T01:54:35;20.10;;;13.20;;
35552;SDS011;21656;46.054;13.614;2022-10-13T01:57:01;20.67;;;13.48;;
35552;SDS011;21656;46.054;13.614;2022-10-13T01:59:26;24.00;;;14.27;;
35552;SDS011;21656;46.054;13.614;2022-10-13T02:02:03;34.80;;;13.45;;
35552;SDS011;21656;46.054;13.614;2022-10-13T02:07:32;22.85;;;13.18;;
35552;SDS011;21656;46.054;13.614;2022-10-13T02:10:10;24.45;;;12.85;;
35552;SDS011;21656;46.054;13.614;2022-10-13T02:12:47;23.02;;;13.60;;
35552;SDS011;21656;46.054;13.614;2022-10-13T02:15:18;21.88;;;13.20;;
35552;SDS011;21656;46.054;13.614;2022-10-13T02:17:49;22.13;;;13.90;;
35552;SDS011;21656;46.054;13.614;2022-10-13T02:20:15;24.08;;;13.40;;
35552;SDS011;21656;46.054;13.614;2022-10-13T02:22:44;22.73;;;14.23;;
35552;SDS011;21656;46.054;13.614;2022-10-13T02:25:11;24.83;;;13.57;;
35552;SDS011;21656;46.054;13.614;2022-10-13T02:27:36;22.15;;;13.25;;
35552;SDS011;21656;46.054;13.614;2022-10-13T02:30:02;27.05;;;14.00;;
35552;SDS011;21656;46.054;13.614;2022-10-13T02:32:28;25.38;;;14.07;;
35552;SDS011;21656;46.054;13.614;2022-10-13T02:34:54;24.17;;;14.77;;
35552;SDS011;21656;46.054;13.614;2022-10-13T02:37:19;21.00;;;13.57;;
35552;SDS011;21656;46.054;13.614;2022-10-13T02:39:44;26.50;;;13.95;;
35552;SDS011;21656;46.054;13.614;2022-10-13T02:42:10;24.25;;;13.63;;
35552;SDS011;21656;46.054;13.614;2022-10-13T02:44:35;22.48;;;14.48;;
35552;SDS011;21656;46.054;13.614;2022-10-13T02:47:01;27.02;;;14.55;;
35552;SDS011;21656;46.054;13.614;2022-10-13T02:49:26;23.48;;;14.45;;
35552;SDS011;21656;46.054;13.614;2022-10-13T02:51:52;24.52;;;14.18;;
35552;SDS011;21656;46.054;13.614;2022-10-13T02:54:19;25.25;;;15.38;;
35552;SDS011;21656;46.054;13.614;2022-10-13T05:53:00;25.23;;;14.48;;
35552;SDS011;21656;46.054;13.614;2022-10-13T05:55:26;29.30;;;15.20;;
35552;SDS011;21656;46.054;13.614;2022-10-13T05:57:51;27.08;;;14.70;;
35552;SDS011;21656;46.054;13.614;2022-10-13T06:00:17;39.45;;;22.70;;
35552;SDS011;21656;46.054;13.614;2022-10-13T06:02:53;38.10;;;20.20;;
35552;SDS011;21656;46.054;13.614;2022-10-13T06:05:24;35.85;;;18.40;;
35552;SDS011;21656;46.054;13.614;2022-10-13T06:07:51;27.98;;;15.77;;
35552;SDS011;21656;46.054;13.614;2022-10-13T06:10:19;37.58;;;24.63;;
35552;SDS011;21656;46.054;13.614;2022-10-13T06:12:45;35.67;;;18.67;;
35552;SDS011;21656;46.054;13.614;2022-10-13T06:15:10;25.83;;;16.77;;
35552;SDS011;21656;46.054;13.614;2022-10-13T06:17:36;31.58;;;17.63;;
35552;SDS011;21656;46.054;13.614;2022-10-13T06:20:03;27.30;;;16.23;;
35552;SDS011;21656;46.054;13.614;2022-10-13T06:22:30;26.67;;;16.48;;
35552;SDS011;21656;46.054;13.614;2022-10-13T06:24:57;30.88;;;17.13;;
35552;SDS011;21656;46.054;13.614;2022-10-13T06:27:22;30.92;;;18.52;;
35552;SDS011;21656;46.054;13.614;2022-10-13T06:29:48;30.33;;;16.83;;
35552;SDS011;21656;46.054;13.614;2022-10-13T06:32:13;32.97;;;17.27;;
35552;SDS011;21656;46.054;13.614;2022-10-13T06:34:38;28.95;;;16.83;;
35552;SDS011;21656;46.054;13.614;2022-10-13T06:37:04;30.10;;;17.00;;
35552;SDS011;21656;46.054;13.614;2022-10-13T06:39:29;24.60;;;16.40;;
35552;SDS011;21656;46.054;13.614;2022-10-13T06:41:54;25.38;;;16.42;;
35552;SDS011;21656;46.054;13.614;2022-10-13T06:44:20;25.92;;;16.63;;
35552;SDS011;21656;46.054;13.614;2022-10-13T06:46:45;28.40;;;15.82;;
35552;SDS011;21656;46.054;13.614;2022-10-13T06:49:11;27.42;;;16.60;;
35552;SDS011;21656;46.054;13.614;2022-10-13T06:51:36;24.67;;;16.42;;
35552;SDS011;21656;46.054;13.614;2022-10-13T06:54:01;32.15;;;17.30;;
35552;SDS011;21656;46.054;13.614;2022-10-13T06:56:28;30.83;;;17.42;;
35552;SDS011;21656;46.054;13.614;2022-10-13T06:58:53;32.35;;;18.15;;
35552;SDS011;21656;46.054;13.614;2022-10-13T07:01:19;29.73;;;17.52;;
35552;SDS011;21656;46.054;13.614;2022-10-13T07:03:48;29.90;;;16.65;;
35552;SDS011;21656;46.054;13.614;2022-10-13T07:06:14;29.27;;;17.27;;
35552;SDS011;21656;46.054;13.614;2022-10-13T07:08:39;27.83;;;16.52;;
35552;SDS011;21656;46.054;13.614;2022-10-13T07:11:08;29.50;;;17.10;;
35552;SDS011;21656;46.054;13.614;2022-10-13T07:13:37;27.50;;;16.58;;
35552;SDS011;21656;46.054;13.614;2022-10-13T07:16:04;25.73;;;16.52;;
35552;SDS011;21656;46.054;13.614;2022-10-13T07:18:30;35.22;;;17.50;;
35552;SDS011;21656;46.054;13.614;2022-10-13T07:20:56;31.27;;;16.85;;
35552;SDS011;21656;46.054;13.614;2022-10-13T07:23:23;31.02;;;15.93;;
35552;SDS011;21656;46.054;13.614;2022-10-13T07:25:48;29.70;;;16.27;;
35552;SDS011;21656;46.054;13.614;2022-10-13T07:28:14;31.25;;;16.13;;
35552;SDS011;21656;46.054;13.614;2022-10-13T07:30:39;24.05;;;15.75;;
35552;SDS011;21656;46.054;13.614;2022-10-13T07:33:05;31.80;;;17.02;;
35552;SDS011;21656;46.054;13.614;2022-10-13T07:35:31;24.00;;;14.32;;
35552;SDS011;21656;46.054;13.614;2022-10-13T07:37:56;24.92;;;16.38;;
35552;SDS011;21656;46.054;13.614;2022-10-13T07:40:22;24.33;;;16.20;;
35552;SDS011;21656;46.054;13.614;2022-10-13T07:42:47;30.17;;;17.77;;
35552;SDS011;21656;46.054;13.614;2022-10-13T07:45:13;28.83;;;16.63;;
35552;SDS011;21656;46.054;13.614;2022-10-13T07:47:40;28.42;;;15.98;;
35552;SDS011;21656;46.054;13.614;2022-10-13T07:50:06;26.90;;;15.75;;
35552;SDS011;21656;46.054;13.614;2022-10-13T07:52:33;30.88;;;16.25;;
35552;SDS011;21656;46.054;13.614;2022-10-13T07:54:59;26.00;;;16.08;;
35552;SDS011;21656;46.054;13.614;2022-10-13T07:57:25;31.63;;;15.65;;
35552;SDS011;21656;46.054;13.614;2022-10-13T07:59:51;27.85;;;16.17;;
35552;SDS011;21656;46.054;13.614;2022-10-13T08:02:17;26.02;;;15.95;;
35552;SDS011;21656;46.054;13.614;2022-10-13T08:04:42;28.50;;;17.15;;
35552;SDS011;21656;46.054;13.614;2022-10-13T08:07:08;26.08;;;15.75;;
35552;SDS011;21656;46.054;13.614;2022-10-13T08:09:33;26.10;;;16.65;;
35552;SDS011;21656;46.054;13.614;2022-10-13T08:11:59;23.50;;;16.00;;
35552;SDS011;21656;46.054;13.614;2022-10-13T08:14:25;28.73;;;15.60;;
35552;SDS011;21656;46.054;13.614;2022-10-13T08:16:50;27.58;;;15.85;;
35552;SDS011;21656;46.054;13.614;2022-10-13T08:19:16;22.63;;;14.88;;
35552;SDS011;21656;46.054;13.614;2022-10-13T08:21:42;21.42;;;14.38;;
35552;SDS011;21656;46.054;13.614;2022-10-13T08:24:11;21.92;;;14.25;;
35552;SDS011;21656;46.054;13.614;2022-10-13T08:26:38;23.55;;;15.52;;
35552;SDS011;21656;46.054;13.614;2022-10-13T08:29:04;26.60;;;15.38;;
35552;SDS011;21656;46.054;13.614;2022-10-13T08:31:30;28.52;;;15.40;;
35552;SDS011;21656;46.054;13.614;2022-10-13T08:33:56;30.75;;;15.15;;
35552;SDS011;21656;46.054;13.614;2022-10-13T08:36:21;23.13;;;14.18;;
35552;SDS011;21656;46.054;13.614;2022-10-13T08:38:47;26.25;;;14.93;;
35552;SDS011;21656;46.054;13.614;2022-10-13T08:44:38;23.80;;;13.85;;
35552;SDS011;21656;46.054;13.614;2022-10-13T08:47:12;20.80;;;13.48;;
35552;SDS011;21656;46.054;13.614;2022-10-13T08:49:47;27.52;;;14.25;;
35552;SDS011;21656;46.054;13.614;2022-10-13T08:52:18;24.70;;;14.35;;
35552;SDS011;21656;46.054;13.614;2022-10-13T08:54:45;21.33;;;14.38;;
35552;SDS011;21656;46.054;13.614;2022-10-13T08:57:11;22.58;;;14.52;;
35552;SDS011;21656;46.054;13.614;2022-10-13T08:59:37;20.38;;;14.35;;
35552;SDS011;21656;46.054;13.614;2022-10-13T09:02:12;21.52;;;14.00;;
35552;SDS011;21656;46.054;13.614;2022-10-13T09:04:45;23.05;;;13.35;;
35552;SDS011;21656;46.054;13.614;2022-10-13T09:07:16;17.77;;;12.38;;
35552;SDS011;21656;46.054;13.614;2022-10-13T09:09:48;17.98;;;12.13;;
35552;SDS011;21656;46.054;13.614;2022-10-13T09:12:17;20.63;;;13.43;;
35552;SDS011;21656;46.054;13.614;2022-10-13T09:15:01;18.33;;;12.18;;
35552;SDS011;21656;46.054;13.614;2022-10-13T09:17:29;18.83;;;12.45;;
35552;SDS011;21656;46.054;13.614;2022-10-13T09:20:02;18.65;;;12.77;;
35552;SDS011;21656;46.054;13.614;2022-10-13T09:22:34;23.20;;;13.27;;
35552;SDS011;21656;46.054;13.614;2022-10-13T09:25:18;20.13;;;13.23;;
35552;SDS011;21656;46.054;13.614;2022-10-13T09:30:23;18.25;;;12.25;;
35552;SDS011;21656;46.054;13.614;2022-10-13T09:32:58;20.27;;;12.40;;
35552;SDS011;21656;46.054;13.614;2022-10-13T09:35:33;20.15;;;13.48;;
35552;SDS011;21656;46.054;13.614;2022-10-13T09:38:05;16.85;;;12.70;;
35552;SDS011;21656;46.054;13.614;2022-10-13T09:40:35;15.90;;;11.57;;
35552;SDS011;21656;46.054;13.614;2022-10-13T09:43:01;16.38;;;11.57;;
35552;SDS011;21656;46.054;13.614;2022-10-13T09:45:30;19.65;;;11.65;;
35552;SDS011;21656;46.054;13.614;2022-10-13T09:48:02;19.30;;;12.48;;
35552;SDS011;21656;46.054;13.614;2022-10-13T09:50:30;20.42;;;12.45;;
35552;SDS011;21656;46.054;13.614;2022-10-13T09:58:40;17.15;;;12.30;;
35552;SDS011;21656;46.054;13.614;2022-10-13T10:01:25;19.88;;;11.57;;
35552;SDS011;21656;46.054;13.614;2022-10-13T10:03:56;23.05;;;12.77;;
35552;SDS011;21656;46.054;13.614;2022-10-13T10:06:22;18.15;;;12.18;;
35552;SDS011;21656;46.054;13.614;2022-10-13T10:08:52;18.77;;;13.15;;
35552;SDS011;21656;46.054;13.614;2022-10-13T10:13:54;19.95;;;13.10;;
35552;SDS011;21656;46.054;13.614;2022-10-13T10:16:31;19.98;;;13.65;;
35552;SDS011;21656;46.054;13.614;2022-10-13T10:19:05;21.27;;;13.25;;
35552;SDS011;21656;46.054;13.614;2022-10-13T10:21:59;20.90;;;13.15;;
35552;SDS011;21656;46.054;13.614;2022-10-13T10:27:25;21.15;;;13.25;;
35552;SDS011;21656;46.054;13.614;2022-10-13T10:29:56;19.50;;;12.95;;
35552;SDS011;21656;46.054;13.614;2022-10-13T10:38:11;21.08;;;13.68;;
35552;SDS011;21656;46.054;13.614;2022-10-13T10:40:53;19.38;;;13.55;;
35552;SDS011;21656;46.054;13.614;2022-10-13T10:46:15;21.58;;;13.45;;
35552;SDS011;21656;46.054;13.614;2022-10-13T10:48:44;23.27;;;13.27;;
35552;SDS011;21656;46.054;13.614;2022-10-13T10:51:11;21.70;;;13.60;;
35552;SDS011;21656;46.054;13.614;2022-10-13T10:56:32;19.80;;;12.52;;
35552;SDS011;21656;46.054;13.614;2022-10-13T11:07:12;21.40;;;13.98;;
35552;SDS011;21656;46.054;13.614;2022-10-13T11:17:26;20.58;;;13.27;;
35552;SDS011;21656;46.054;13.614;2022-10-13T11:19:57;18.60;;;12.73;;
35552;SDS011;21656;46.054;13.614;2022-10-13T11:30:51;16.70;;;11.75;;
35552;SDS011;21656;46.054;13.614;2022-10-13T11:41:27;19.80;;;11.82;;
35552;SDS011;21656;46.054;13.614;2022-10-13T11:46:28;17.67;;;12.43;;
35552;SDS011;21656;46.054;13.614;2022-10-13T11:54:50;19.42;;;12.18;;
35552;SDS011;21656;46.054;13.614;2022-10-13T11:57:21;18.67;;;11.95;;
35552;SDS011;21656;46.054;13.614;2022-10-13T11:59:49;17.08;;;12.18;;
35552;SDS011;21656;46.054;13.614;2022-10-13T12:02:19;19.30;;;13.05;;
35552;SDS011;21656;46.054;13.614;2022-10-13T12:05:06;21.80;;;12.90;;
35552;SDS011;21656;46.054;13.614;2022-10-13T12:10:07;16.80;;;11.75;;
35552;SDS011;21656;46.054;13.614;2022-10-13T12:12:44;16.25;;;11.18;;
35552;SDS011;21656;46.054;13.614;2022-10-13T12:15:30;17.33;;;11.73;;
35552;SDS011;21656;46.054;13.614;2022-10-13T12:18:00;14.43;;;11.55;;
35552;SDS011;21656;46.054;13.614;2022-10-13T12:20:31;17.45;;;12.13;;
35552;SDS011;21656;46.054;13.614;2022-10-13T12:22:57;21.42;;;11.40;;
35552;SDS011;21656;46.054;13.614;2022-10-13T12:25:24;19.35;;;12.10;;
35552;SDS011;21656;46.054;13.614;2022-10-13T12:27:53;15.48;;;11.52;;
35552;SDS011;21656;46.054;13.614;2022-10-13T12:30:23;17.63;;;12.15;;
35552;SDS011;21656;46.054;13.614;2022-10-13T12:32:50;15.63;;;11.45;;
35552;SDS011;21656;46.054;13.614;2022-10-13T12:35:32;14.80;;;10.60;;
35552;SDS011;21656;46.054;13.614;2022-10-13T12:38:02;16.83;;;11.02;;
35552;SDS011;21656;46.054;13.614;2022-10-13T12:40:30;15.27;;;11.05;;
35552;SDS011;21656;46.054;13.614;2022-10-13T12:42:56;17.05;;;10.50;;
35552;SDS011;21656;46.054;13.614;2022-10-13T12:45:23;14.82;;;9.95;;
35552;SDS011;21656;46.054;13.614;2022-10-13T12:47:53;16.08;;;10.80;;
35552;SDS011;21656;46.054;13.614;2022-10-13T12:52:52;17.38;;;11.30;;
35552;SDS011;21656;46.054;13.614;2022-10-13T12:55:31;16.05;;;11.00;;
35552;SDS011;21656;46.054;13.614;2022-10-13T12:58:22;14.77;;;10.23;;
35552;SDS011;21656;46.054;13.614;2022-10-13T13:00:54;16.23;;;11.35;;
35552;SDS011;21656;46.054;13.614;2022-10-13T13:03:31;15.25;;;11.05;;
35552;SDS011;21656;46.054;13.614;2022-10-13T13:06:18;19.63;;;12.85;;
35552;SDS011;21656;46.054;13.614;2022-10-13T13:09:04;16.50;;;11.10;;
35552;SDS011;21656;46.054;13.614;2022-10-13T13:11:37;14.65;;;10.90;;
35552;SDS011;21656;46.054;13.614;2022-10-13T13:14:22;16.42;;;11.15;;
35552;SDS011;21656;46.054;13.614;2022-10-13T13:17:04;14.40;;;10.60;;
35552;SDS011;21656;46.054;13.614;2022-10-13T13:19:37;16.63;;;11.15;;
35552;SDS011;21656;46.054;13.614;2022-10-13T13:22:05;16.33;;;10.93;;
35552;SDS011;21656;46.054;13.614;2022-10-13T13:24:31;20.45;;;11.75;;
35552;SDS011;21656;46.054;13.614;2022-10-13T13:26:58;15.82;;;11.68;;
35552;SDS011;21656;46.054;13.614;2022-10-13T13:29:23;21.60;;;12.75;;
35552;SDS011;21656;46.054;13.614;2022-10-13T13:31:49;17.15;;;12.07;;
35552;SDS011;21656;46.054;13.614;2022-10-13T13:34:14;20.25;;;12.70;;
35552;SDS011;21656;46.054;13.614;2022-10-13T13:36:40;23.38;;;12.65;;
35552;SDS011;21656;46.054;13.614;2022-10-13T13:39:11;18.17;;;12.27;;
35552;SDS011;21656;46.054;13.614;2022-10-13T13:41:40;23.63;;;12.73;;
35552;SDS011;21656;46.054;13.614;2022-10-13T13:44:06;22.23;;;13.68;;
35552;SDS011;21656;46.054;13.614;2022-10-13T13:46:31;19.80;;;13.32;;
35552;SDS011;21656;46.054;13.614;2022-10-13T13:48:57;19.02;;;13.55;;
35552;SDS011;21656;46.054;13.614;2022-10-13T13:51:23;24.77;;;14.00;;
35552;SDS011;21656;46.054;13.614;2022-10-13T13:53:49;18.52;;;13.15;;
35552;SDS011;21656;46.054;13.614;2022-10-13T13:56:16;23.30;;;13.85;;
35552;SDS011;21656;46.054;13.614;2022-10-13T13:58:43;21.38;;;13.73;;
35552;SDS011;21656;46.054;13.614;2022-10-13T14:01:10;25.00;;;14.68;;
35552;SDS011;21656;46.054;13.614;2022-10-13T14:03:36;20.23;;;13.95;;
35552;SDS011;21656;46.054;13.614;2022-10-13T14:06:02;22.83;;;14.45;;
35552;SDS011;21656;46.054;13.614;2022-10-13T14:08:31;19.45;;;14.20;;
35552;SDS011;21656;46.054;13.614;2022-10-13T14:10:59;20.80;;;13.93;;
35552;SDS011;21656;46.054;13.614;2022-10-13T14:13:25;21.70;;;14.32;;
35552;SDS011;21656;46.054;13.614;2022-10-13T14:15:57;23.90;;;15.38;;
35552;SDS011;21656;46.054;13.614;2022-10-13T14:18:26;23.60;;;15.65;;
35552;SDS011;21656;46.054;13.614;2022-10-13T14:20:53;21.92;;;15.40;;
35552;SDS011;21656;46.054;13.614;2022-10-13T14:23:18;26.25;;;15.18;;
35552;SDS011;21656;46.054;13.614;2022-10-13T14:25:44;28.33;;;15.82;;
35552;SDS011;21656;46.054;13.614;2022-10-13T14:28:10;34.50;;;15.85;;
35552;SDS011;21656;46.054;13.614;2022-10-13T14:30:39;25.73;;;16.52;;
35552;SDS011;21656;46.054;13.614;2022-10-13T14:33:07;29.77;;;16.70;;
35552;SDS011;21656;46.054;13.614;2022-10-13T14:35:43;31.15;;;17.08;;
35552;SDS011;21656;46.054;13.614;2022-10-13T14:38:09;25.48;;;16.08;;
35552;SDS011;21656;46.054;13.614;2022-10-13T14:40:39;23.90;;;16.80;;
35552;SDS011;21656;46.054;13.614;2022-10-13T14:43:05;27.90;;;18.90;;
35552;SDS011;21656;46.054;13.614;2022-10-13T14:45:30;27.45;;;17.67;;
35552;SDS011;21656;46.054;13.614;2022-10-13T14:47:56;24.27;;;17.05;;
35552;SDS011;21656;46.054;13.614;2022-10-13T14:50:21;35.10;;;18.27;;
35552;SDS011;21656;46.054;13.614;2022-10-13T14:52:47;30.08;;;18.58;;
35552;SDS011;21656;46.054;13.614;2022-10-13T14:55:12;35.55;;;19.73;;
35552;SDS011;21656;46.054;13.614;2022-10-13T14:57:38;35.45;;;20.85;;
35552;SDS011;21656;46.054;13.614;2022-10-13T15:00:04;34.90;;;21.23;;
35552;SDS011;21656;46.054;13.614;2022-10-13T15:02:30;32.53;;;20.95;;
35552;SDS011;21656;46.054;13.614;2022-10-13T15:04:57;36.03;;;18.77;;
35552;SDS011;21656;46.054;13.614;2022-10-13T15:07:26;31.02;;;19.13;;
35552;SDS011;21656;46.054;13.614;2022-10-13T15:09:53;29.95;;;19.25;;
35552;SDS011;21656;46.054;13.614;2022-10-13T15:12:19;40.97;;;20.48;;
35552;SDS011;21656;46.054;13.614;2022-10-13T15:14:44;28.65;;;18.40;;
35552;SDS011;21656;46.054;13.614;2022-10-13T15:17:10;39.58;;;19.77;;
35552;SDS011;21656;46.054;13.614;2022-10-13T15:19:36;27.95;;;19.13;;
35552;SDS011;21656;46.054;13.614;2022-10-13T15:22:01;28.33;;;18.83;;
35552;SDS011;21656;46.054;13.614;2022-10-13T15:24:27;28.08;;;18.95;;
35552;SDS011;21656;46.054;13.614;2022-10-13T15:26:53;33.72;;;19.48;;
35552;SDS011;21656;46.054;13.614;2022-10-13T15:29:19;34.60;;;22.60;;
35552;SDS011;21656;46.054;13.614;2022-10-13T15:31:45;32.10;;;21.95;;
35552;SDS011;21656;46.054;13.614;2022-10-13T15:34:10;35.13;;;21.23;;
35552;SDS011;21656;46.054;13.614;2022-10-13T15:36:36;32.95;;;21.60;;
35552;SDS011;21656;46.054;13.614;2022-10-13T15:39:01;37.15;;;21.08;;
35552;SDS011;21656;46.054;13.614;2022-10-13T15:41:27;33.42;;;21.48;;
35552;SDS011;21656;46.054;13.614;2022-10-13T15:43:53;35.95;;;22.05;;
35552;SDS011;21656;46.054;13.614;2022-10-13T15:46:19;35.10;;;20.55;;
35552;SDS011;21656;46.054;13.614;2022-10-13T15:48:51;38.30;;;22.13;;
35552;SDS011;21656;46.054;13.614;2022-10-13T15:51:18;33.58;;;21.35;;
35552;SDS011;21656;46.054;13.614;2022-10-13T15:53:46;35.38;;;20.77;;
35552;SDS011;21656;46.054;13.614;2022-10-13T15:56:12;38.92;;;21.77;;
35552;SDS011;21656;46.054;13.614;2022-10-13T15:58:38;38.50;;;22.25;;
35552;SDS011;21656;46.054;13.614;2022-10-13T16:01:07;42.83;;;21.92;;
35552;SDS011;21656;46.054;13.614;2022-10-13T16:03:35;38.40;;;20.60;;
35552;SDS011;21656;46.054;13.614;2022-10-13T16:06:02;35.25;;;20.40;;
35552;SDS011;21656;46.054;13.614;2022-10-13T16:08:29;32.40;;;20.52;;
35552;SDS011;21656;46.054;13.614;2022-10-13T16:10:55;35.25;;;22.30;;
35552;SDS011;21656;46.054;13.614;2022-10-13T16:13:21;37.85;;;20.90;;
35552;SDS011;21656;46.054;13.614;2022-10-13T16:15:56;34.28;;;20.58;;
35552;SDS011;21656;46.054;13.614;2022-10-13T16:18:28;31.42;;;19.33;;
35552;SDS011;21656;46.054;13.614;2022-10-13T16:20:55;38.30;;;19.75;;
35552;SDS011;21656;46.054;13.614;2022-10-13T16:23:21;31.38;;;20.15;;
35552;SDS011;21656;46.054;13.614;2022-10-13T16:25:46;37.10;;;20.73;;
35552;SDS011;21656;46.054;13.614;2022-10-13T16:28:12;35.88;;;20.40;;
35552;SDS011;21656;46.054;13.614;2022-10-13T16:30:39;34.80;;;19.85;;
35552;SDS011;21656;46.054;13.614;2022-10-13T16:33:05;31.05;;;19.98;;
35552;SDS011;21656;46.054;13.614;2022-10-13T16:35:31;35.35;;;19.95;;
35552;SDS011;21656;46.054;13.614;2022-10-13T16:37:58;37.05;;;19.83;;
35552;SDS011;21656;46.054;13.614;2022-10-13T16:40:25;38.90;;;20.13;;
35552;SDS011;21656;46.054;13.614;2022-10-13T16:42:51;34.38;;;20.55;;
35552;SDS011;21656;46.054;13.614;2022-10-13T16:45:16;32.47;;;21.95;;
35552;SDS011;21656;46.054;13.614;2022-10-13T16:47:42;34.75;;;20.00;;
35552;SDS011;21656;46.054;13.614;2022-10-13T16:50:08;32.78;;;20.98;;
35552;SDS011;21656;46.054;13.614;2022-10-13T16:52:36;41.55;;;22.02;;
35552;SDS011;21656;46.054;13.614;2022-10-13T16:55:02;38.60;;;22.00;;
35552;SDS011;21656;46.054;13.614;2022-10-13T16:57:29;33.15;;;20.38;;
35552;SDS011;21656;46.054;13.614;2022-10-13T16:59:55;34.08;;;19.83;;
35552;SDS011;21656;46.054;13.614;2022-10-13T17:02:20;34.10;;;19.90;;
35552;SDS011;21656;46.054;13.614;2022-10-13T17:04:47;40.80;;;20.15;;
35552;SDS011;21656;46.054;13.614;2022-10-13T17:07:12;32.45;;;20.73;;
35552;SDS011;21656;46.054;13.614;2022-10-13T17:09:38;35.72;;;20.45;;
35552;SDS011;21656;46.054;13.614;2022-10-13T17:12:04;39.85;;;21.33;;
35552;SDS011;21656;46.054;13.614;2022-10-13T17:14:29;39.97;;;20.80;;
35552;SDS011;21656;46.054;13.614;2022-10-13T17:16:55;38.90;;;21.67;;
35552;SDS011;21656;46.054;13.614;2022-10-13T17:19:20;35.05;;;21.70;;
35552;SDS011;21656;46.054;13.614;2022-10-13T17:21:46;35.10;;;21.30;;
35552;SDS011;21656;46.054;13.614;2022-10-13T17:24:11;34.92;;;20.40;;
35552;SDS011;21656;46.054;13.614;2022-10-13T17:26:37;40.33;;;21.00;;
35552;SDS011;21656;46.054;13.614;2022-10-13T17:29:02;38.13;;;21.83;;
35552;SDS011;21656;46.054;13.614;2022-10-13T17:31:28;44.75;;;22.05;;
35552;SDS011;21656;46.054;13.614;2022-10-13T17:33:54;40.70;;;21.20;;
35552;SDS011;21656;46.054;13.614;2022-10-13T17:36:23;42.08;;;22.65;;
35552;SDS011;21656;46.054;13.614;2022-10-13T17:38:52;38.05;;;22.23;;
35552;SDS011;21656;46.054;13.614;2022-10-13T17:41:20;36.47;;;22.27;;
35552;SDS011;21656;46.054;13.614;2022-10-13T17:43:46;39.97;;;21.70;;
35552;SDS011;21656;46.054;13.614;2022-10-13T17:46:13;37.22;;;22.77;;
35552;SDS011;21656;46.054;13.614;2022-10-13T17:48:39;38.40;;;24.30;;
35552;SDS011;21656;46.054;13.614;2022-10-13T17:51:05;39.47;;;22.35;;
35552;SDS011;21656;46.054;13.614;2022-10-13T17:53:32;37.95;;;22.65;;
35552;SDS011;21656;46.054;13.614;2022-10-13T17:56:01;39.00;;;23.23;;
35552;SDS011;21656;46.054;13.614;2022-10-13T17:58:30;44.10;;;25.42;;
35552;SDS011;21656;46.054;13.614;2022-10-13T18:00:55;47.58;;;25.27;;
35552;SDS011;21656;46.054;13.614;2022-10-13T18:03:21;57.08;;;31.45;;
35552;SDS011;21656;46.054;13.614;2022-10-13T18:05:48;44.53;;;23.13;;
35552;SDS011;21656;46.054;13.614;2022-10-13T18:08:13;38.88;;;23.80;;
35552;SDS011;21656;46.054;13.614;2022-10-13T18:10:39;43.00;;;23.25;;
35552;SDS011;21656;46.054;13.614;2022-10-13T18:13:04;37.33;;;22.67;;
35552;SDS011;21656;46.054;13.614;2022-10-13T18:15:33;42.25;;;23.02;;
35552;SDS011;21656;46.054;13.614;2022-10-13T18:18:00;36.25;;;22.52;;
35552;SDS011;21656;46.054;13.614;2022-10-13T18:20:27;38.72;;;21.95;;
35552;SDS011;21656;46.054;13.614;2022-10-13T18:22:53;41.08;;;22.33;;
35552;SDS011;21656;46.054;13.614;2022-10-13T18:25:19;39.47;;;22.63;;
35552;SDS011;21656;46.054;13.614;2022-10-13T18:27:45;39.60;;;23.38;;
35552;SDS011;21656;46.054;13.614;2022-10-13T18:30:11;39.83;;;21.65;;
35552;SDS011;21656;46.054;13.614;2022-10-13T18:32:37;40.30;;;22.83;;
35552;SDS011;21656;46.054;13.614;2022-10-13T18:35:03;40.65;;;21.75;;
35552;SDS011;21656;46.054;13.614;2022-10-13T18:37:29;38.13;;;22.15;;
35552;SDS011;21656;46.054;13.614;2022-10-13T18:39:55;44.65;;;22.13;;
35552;SDS011;21656;46.054;13.614;2022-10-13T18:42:21;42.67;;;23.92;;
35552;SDS011;21656;46.054;13.614;2022-10-13T18:44:47;40.15;;;23.52;;
35552;SDS011;21656;46.054;13.614;2022-10-13T18:47:13;51.65;;;25.75;;
35552;SDS011;21656;46.054;13.614;2022-10-13T18:49:39;44.10;;;24.90;;